sensor_id;sensor_type;location;lat;lon;timestamp;P1;P2;P0
57049;PMS7003;42935;50.966;16.992;2022-11-20T00:02:59;96;68;40
57049;PMS7003;42935;50.966;16.992;2022-11-20T00:06:17;85;59;36
57049;PMS7003;42935;50.966;16.992;2022-11-20T00:09:29;73;49;32
57049;PMS7003;42935;50.966;16.992;2022-11-20T00:12:43;59;41;26
57049;PMS7003;42935;50.966;16.992;2022-11-20T00:15:56;60;41;26
57049;PMS7003;42935;50.966;16.992;2022-11-20T00:19:11;54;37;22
57049;PMS7003;42935;50.966;16.992;2022-11-20T00:22:25;72;49;29
57049;PMS7003;42935;50.966;16.992;2022-11-20T00:25:31;63;44;26
57049;PMS7003;42935;50.966;16.992;2022-11-20T00:28:52;52;38;22
57049;PMS7003;42935;50.966;16.992;2022-11-20T00:32:10;55;42;26
57049;PMS7003;42935;50.966;16.992;2022-11-20T00:35:21;49;39;22
57049;PMS7003;42935;50.966;16.992;2022-11-20T00:38:29;47;31;20
57049;PMS7003;42935;50.966;16.992;2022-11-20T00:41:39;41;25;17
57049;PMS7003;42935;50.966;16.992;2022-11-20T00:44:47;51;34;22
57049;PMS7003;42935;50.966;16.992;2022-11-20T00:47:51;0;0;0
57049;PMS7003;42935;50.966;16.992;2022-11-20T00:50:55;0;0;0
57049;PMS7003;42935;50.966;16.992;2022-11-20T00:54:00;0;0;0
57049;PMS7003;42935;50.966;16.992;2022-11-20T00:57:05;0;0;0
57049;PMS7003;42935;50.966;16.992;2022-11-20T01:00:09;0;0;0
57049;PMS7003;42935;50.966;16.992;2022-11-20T01:03:14;0;0;0
57049;PMS7003;42935;50.966;16.992;2022-11-20T01:06:20;0;0;0
57049;PMS7003;42935;50.966;16.992;2022-11-20T01:09:27;0;0;0
57049;PMS7003;42935;50.966;16.992;2022-11-20T01:12:32;0;0;0
57049;PMS7003;42935;50.966;16.992;2022-11-20T01:19:18;0;0;0
57049;PMS7003;42935;50.966;16.992;2022-11-20T01:22:23;0;0;0
57049;PMS7003;42935;50.966;16.992;2022-11-20T01:25:34;0;0;0
57049;PMS7003;42935;50.966;16.992;2022-11-20T01:28:46;0;0;0
57049;PMS7003;42935;50.966;16.992;2022-11-20T01:31:52;0;0;0
57049;PMS7003;42935;50.966;16.992;2022-11-20T01:35:04;15;13;8
57049;PMS7003;42935;50.966;16.992;2022-11-20T01:38:21;61;41;25
57049;PMS7003;42935;50.966;16.992;2022-11-20T01:41:35;58;39;24
57049;PMS7003;42935;50.966;16.992;2022-11-20T01:48:28;55;36;24
57049;PMS7003;42935;50.966;16.992;2022-11-20T01:51:50;59;41;24
57049;PMS7003;42935;50.966;16.992;2022-11-20T01:55:06;51;37;23
57049;PMS7003;42935;50.966;16.992;2022-11-20T01:58:31;46;35;24
57049;PMS7003;42935;50.966;16.992;2022-11-20T02:01:45;51;34;23
57049;PMS7003;42935;50.966;16.992;2022-11-20T02:05:04;53;38;23
57049;PMS7003;42935;50.966;16.992;2022-11-20T02:08:20;48;34;21
57049;PMS7003;42935;50.966;16.992;2022-11-20T02:11:32;48;33;21
57049;PMS7003;42935;50.966;16.992;2022-11-20T02:14:42;34;21;14
57049;PMS7003;42935;50.966;16.992;2022-11-20T02:17:59;48;32;19
57049;PMS7003;42935;50.966;16.992;2022-11-20T02:21:14;29;21;14
57049;PMS7003;42935;50.966;16.992;2022-11-20T02:24:37;48;36;21
57049;PMS7003;42935;50.966;16.992;2022-11-20T02:27:53;45;29;16
57049;PMS7003;42935;50.966;16.992;2022-11-20T02:31:05;53;37;21
57049;PMS7003;42935;50.966;16.992;2022-11-20T02:34:23;32;21;12
57049;PMS7003;42935;50.966;16.992;2022-11-20T02:37:37;46;34;21
57049;PMS7003;42935;50.966;16.992;2022-11-20T02:40:48;45;31;20
57049;PMS7003;42935;50.966;16.992;2022-11-20T02:44:00;33;21;15
57049;PMS7003;42935;50.966;16.992;2022-11-20T02:47:21;48;35;20
57049;PMS7003;42935;50.966;16.992;2022-11-20T02:50:37;50;37;22
57049;PMS7003;42935;50.966;16.992;2022-11-20T02:53:45;43;29;17
57049;PMS7003;42935;50.966;16.992;2022-11-20T02:57:05;48;34;20
57049;PMS7003;42935;50.966;16.992;2022-11-20T03:00:11;0;0;0
57049;PMS7003;42935;50.966;16.992;2022-11-20T03:03:18;0;0;0
57049;PMS7003;42935;50.966;16.992;2022-11-20T03:06:23;0;0;0
57049;PMS7003;42935;50.966;16.992;2022-11-20T03:09:28;0;0;0
57049;PMS7003;42935;50.966;16.992;2022-11-20T03:12:34;0;0;0
57049;PMS7003;42935;50.966;16.992;2022-11-20T03:15:40;0;0;0
57049;PMS7003;42935;50.966;16.992;2022-11-20T03:18:45;0;0;0
57049;PMS7003;42935;50.966;16.992;2022-11-20T03:21:50;0;0;0
57049;PMS7003;42935;50.966;16.992;2022-11-20T03:24:55;0;0;0
57049;PMS7003;42935;50.966;16.992;2022-11-20T03:28:00;0;0;0
57049;PMS7003;42935;50.966;16.992;2022-11-20T03:31:14;0;0;0
57049;PMS7003;42935;50.966;16.992;2022-11-20T03:34:45;0;0;0
57049;PMS7003;42935;50.966;16.992;2022-11-20T03:37:51;0;0;0
57049;PMS7003;42935;50.966;16.992;2022-11-20T03:40:58;0;0;0
57049;PMS7003;42935;50.966;16.992;2022-11-20T03:44:06;0;0;0
57049;PMS7003;42935;50.966;16.992;2022-11-20T03:47:12;0;0;0
57049;PMS7003;42935;50.966;16.992;2022-11-20T03:50:16;0;0;0
57049;PMS7003;42935;50.966;16.992;2022-11-20T03:53:20;0;0;0
57049;PMS7003;42935;50.966;16.992;2022-11-20T03:56:28;0;0;0
57049;PMS7003;42935;50.966;16.992;2022-11-20T03:59:34;0;0;0
57049;PMS7003;42935;50.966;16.992;2022-11-20T04:02:38;0;0;0
57049;PMS7003;42935;50.966;16.992;2022-11-20T04:05:43;0;0;0
57049;PMS7003;42935;50.966;16.992;2022-11-20T04:08:57;0;0;0
57049;PMS7003;42935;50.966;16.992;2022-11-20T04:12:02;0;0;0
57049;PMS7003;42935;50.966;16.992;2022-11-20T04:15:07;0;0;0
57049;PMS7003;42935;50.966;16.992;2022-11-20T04:18:12;0;0;0
57049;PMS7003;42935;50.966;16.992;2022-11-20T04:21:17;0;0;0
57049;PMS7003;42935;50.966;16.992;2022-11-20T04:24:21;0;0;0
57049;PMS7003;42935;50.966;16.992;2022-11-20T04:27:25;0;0;0
57049;PMS7003;42935;50.966;16.992;2022-11-20T04:30:29;0;0;0
57049;PMS7003;42935;50.966;16.992;2022-11-20T04:33:35;0;0;0
57049;PMS7003;42935;50.966;16.992;2022-11-20T04:36:40;0;0;0
57049;PMS7003;42935;50.966;16.992;2022-11-20T04:39:44;0;0;0
57049;PMS7003;42935;50.966;16.992;2022-11-20T04:42:48;0;0;0
57049;PMS7003;42935;50.966;16.992;2022-11-20T04:45:53;0;0;0
57049;PMS7003;42935;50.966;16.992;2022-11-20T04:49:00;0;0;0
57049;PMS7003;42935;50.966;16.992;2022-11-20T04:52:04;0;0;0
57049;PMS7003;42935;50.966;16.992;2022-11-20T04:55:08;0;0;0
57049;PMS7003;42935;50.966;16.992;2022-11-20T04:58:13;0;0;0
57049;PMS7003;42935;50.966;16.992;2022-11-20T05:01:19;0;0;0
57049;PMS7003;42935;50.966;16.992;2022-11-20T05:04:25;0;0;0
57049;PMS7003;42935;50.966;16.992;2022-11-20T05:07:32;0;0;0
57049;PMS7003;42935;50.966;16.992;2022-11-20T05:10:37;0;0;0
57049;PMS7003;42935;50.966;16.992;2022-11-20T05:13:41;0;0;0
57049;PMS7003;42935;50.966;16.992;2022-11-20T05:16:46;0;0;0
57049;PMS7003;42935;50.966;16.992;2022-11-20T05:19:51;0;0;0
57049;PMS7003;42935;50.966;16.992;2022-11-20T05:22:56;0;0;0
57049;PMS7003;42935;50.966;16.992;2022-11-20T05:26:05;0;0;0
57049;PMS7003;42935;50.966;16.992;2022-11-20T05:29:11;0;0;0
57049;PMS7003;42935;50.966;16.992;2022-11-20T05:32:16;0;0;0
57049;PMS7003;42935;50.966;16.992;2022-11-20T05:35:21;0;0;0
57049;PMS7003;42935;50.966;16.992;2022-11-20T05:38:26;0;0;0
57049;PMS7003;42935;50.966;16.992;2022-11-20T05:41:30;0;0;0
57049;PMS7003;42935;50.966;16.992;2022-11-20T05:44:38;0;0;0
57049;PMS7003;42935;50.966;16.992;2022-11-20T05:47:44;10;10;10
57049;PMS7003;42935;50.966;16.992;2022-11-20T05:50:58;0;0;0
57049;PMS7003;42935;50.966;16.992;2022-11-20T05:54:34;0;0;0
57049;PMS7003;42935;50.966;16.992;2022-11-20T05:57:40;0;0;0
57049;PMS7003;42935;50.966;16.992;2022-11-20T06:00:46;0;0;0
57049;PMS7003;42935;50.966;16.992;2022-11-20T06:04:22;0;0;0
57049;PMS7003;42935;50.966;16.992;2022-11-20T06:07:26;0;0;0
57049;PMS7003;42935;50.966;16.992;2022-11-20T06:10:33;0;0;0
57049;PMS7003;42935;50.966;16.992;2022-11-20T06:13:45;0;0;0
57049;PMS7003;42935;50.966;16.992;2022-11-20T06:16:50;0;0;0
57049;PMS7003;42935;50.966;16.992;2022-11-20T06:19:55;0;0;0
57049;PMS7003;42935;50.966;16.992;2022-11-20T06:23:01;0;0;0
57049;PMS7003;42935;50.966;16.992;2022-11-20T06:26:08;0;0;0
57049;PMS7003;42935;50.966;16.992;2022-11-20T06:29:15;0;0;0
57049;PMS7003;42935;50.966;16.992;2022-11-20T06:32:20;0;0;0
57049;PMS7003;42935;50.966;16.992;2022-11-20T06:35:24;0;0;0
57049;PMS7003;42935;50.966;16.992;2022-11-20T06:38:36;0;0;0
57049;PMS7003;42935;50.966;16.992;2022-11-20T06:41:43;0;0;0
57049;PMS7003;42935;50.966;16.992;2022-11-20T06:44:53;0;0;0
57049;PMS7003;42935;50.966;16.992;2022-11-20T06:47:58;0;0;0
57049;PMS7003;42935;50.966;16.992;2022-11-20T06:51:04;0;0;0
57049;PMS7003;42935;50.966;16.992;2022-11-20T06:54:10;0;0;0
57049;PMS7003;42935;50.966;16.992;2022-11-20T06:57:17;0;0;0
57049;PMS7003;42935;50.966;16.992;2022-11-20T07:00:22;0;0;0
57049;PMS7003;42935;50.966;16.992;2022-11-20T07:03:27;0;0;0
57049;PMS7003;42935;50.966;16.992;2022-11-20T07:06:31;0;0;0
57049;PMS7003;42935;50.966;16.992;2022-11-20T07:09:36;0;0;0
57049;PMS7003;42935;50.966;16.992;2022-11-20T07:12:41;3;3;3
57049;PMS7003;42935;50.966;16.992;2022-11-20T07:15:45;0;0;0
57049;PMS7003;42935;50.966;16.992;2022-11-20T07:18:51;0;0;0
57049;PMS7003;42935;50.966;16.992;2022-11-20T07:21:56;0;0;0
57049;PMS7003;42935;50.966;16.992;2022-11-20T07:25:32;0;0;0
57049;PMS7003;42935;50.966;16.992;2022-11-20T07:28:37;0;0;0
57049;PMS7003;42935;50.966;16.992;2022-11-20T07:31:41;0;0;0
57049;PMS7003;42935;50.966;16.992;2022-11-20T07:34:47;0;0;0
57049;PMS7003;42935;50.966;16.992;2022-11-20T07:37:52;0;0;0
57049;PMS7003;42935;50.966;16.992;2022-11-20T07:40:58;0;0;0
57049;PMS7003;42935;50.966;16.992;2022-11-20T07:44:04;0;0;0
57049;PMS7003;42935;50.966;16.992;2022-11-20T07:47:09;0;0;0
57049;PMS7003;42935;50.966;16.992;2022-11-20T07:50:13;0;0;0
57049;PMS7003;42935;50.966;16.992;2022-11-20T07:53:18;0;0;0
57049;PMS7003;42935;50.966;16.992;2022-11-20T07:56:24;0;0;0
57049;PMS7003;42935;50.966;16.992;2022-11-20T07:59:29;0;0;0
57049;PMS7003;42935;50.966;16.992;2022-11-20T08:02:37;0;0;0
57049;PMS7003;42935;50.966;16.992;2022-11-20T08:05:45;0;0;0
57049;PMS7003;42935;50.966;16.992;2022-11-20T08:08:49;0;0;0
57049;PMS7003;42935;50.966;16.992;2022-11-20T08:12:25;0;0;0
57049;PMS7003;42935;50.966;16.992;2022-11-20T08:15:41;0;0;0
57049;PMS7003;42935;50.966;16.992;2022-11-20T08:18:51;0;0;0
57049;PMS7003;42935;50.966;16.992;2022-11-20T08:21:56;0;0;0
57049;PMS7003;42935;50.966;16.992;2022-11-20T08:25:02;0;0;0
57049;PMS7003;42935;50.966;16.992;2022-11-20T08:28:08;0;0;0
57049;PMS7003;42935;50.966;16.992;2022-11-20T08:31:14;0;0;0
57049;PMS7003;42935;50.966;16.992;2022-11-20T08:34:21;21;18;12
57049;PMS7003;42935;50.966;16.992;2022-11-20T08:37:26;0;0;0
57049;PMS7003;42935;50.966;16.992;2022-11-20T08:40:31;0;0;0
57049;PMS7003;42935;50.966;16.992;2022-11-20T08:43:41;0;0;0
57049;PMS7003;42935;50.966;16.992;2022-11-20T08:46:45;0;0;0
57049;PMS7003;42935;50.966;16.992;2022-11-20T08:49:51;0;0;0
57049;PMS7003;42935;50.966;16.992;2022-11-20T08:53:01;0;0;0
57049;PMS7003;42935;50.966;16.992;2022-11-20T08:56:09;0;0;0
57049;PMS7003;42935;50.966;16.992;2022-11-20T08:59:15;0;0;0
57049;PMS7003;42935;50.966;16.992;2022-11-20T09:02:51;0;0;0
57049;PMS7003;42935;50.966;16.992;2022-11-20T09:06:02;0;0;0
57049;PMS7003;42935;50.966;16.992;2022-11-20T09:09:08;0;0;0
57049;PMS7003;42935;50.966;16.992;2022-11-20T09:12:13;16;13;12
57049;PMS7003;42935;50.966;16.992;2022-11-20T09:15:18;0;0;0
57049;PMS7003;42935;50.966;16.992;2022-11-20T09:18:24;0;0;0
57049;PMS7003;42935;50.966;16.992;2022-11-20T09:21:29;6;6;6
57049;PMS7003;42935;50.966;16.992;2022-11-20T09:24:40;0;0;0
57049;PMS7003;42935;50.966;16.992;2022-11-20T09:27:48;0;0;0
57049;PMS7003;42935;50.966;16.992;2022-11-20T09:31:05;0;0;0
57049;PMS7003;42935;50.966;16.992;2022-11-20T09:34:17;0;0;0
57049;PMS7003;42935;50.966;16.992;2022-11-20T09:37:22;0;0;0
57049;PMS7003;42935;50.966;16.992;2022-11-20T09:40:28;0;0;0
57049;PMS7003;42935;50.966;16.992;2022-11-20T09:54:01;0;0;0
57049;PMS7003;42935;50.966;16.992;2022-11-20T09:57:20;0;0;0
57049;PMS7003;42935;50.966;16.992;2022-11-20T10:00:29;0;0;0
57049;PMS7003;42935;50.966;16.992;2022-11-20T10:06:56;0;0;0
57049;PMS7003;42935;50.966;16.992;2022-11-20T10:13:33;0;0;0
57049;PMS7003;42935;50.966;16.992;2022-11-20T10:23:24;0;0;0
57049;PMS7003;42935;50.966;16.992;2022-11-20T10:33:19;0;0;0
57049;PMS7003;42935;50.966;16.992;2022-11-20T10:43:00;9;8;5
57049;PMS7003;42935;50.966;16.992;2022-11-20T10:46:10;0;0;0
57049;PMS7003;42935;50.966;16.992;2022-11-20T10:49:21;0;0;0
57049;PMS7003;42935;50.966;16.992;2022-11-20T10:55:47;2;2;2
57049;PMS7003;42935;50.966;16.992;2022-11-20T11:02:22;0;0;0
57049;PMS7003;42935;50.966;16.992;2022-11-20T11:08:53;0;0;0
57049;PMS7003;42935;50.966;16.992;2022-11-20T11:12:06;0;0;0
57049;PMS7003;42935;50.966;16.992;2022-11-20T11:15:24;0;0;0
57049;PMS7003;42935;50.966;16.992;2022-11-20T11:18:30;0;0;0
57049;PMS7003;42935;50.966;16.992;2022-11-20T11:21:36;0;0;0
57049;PMS7003;42935;50.966;16.992;2022-11-20T11:28:00;6;4;2
57049;PMS7003;42935;50.966;16.992;2022-11-20T11:31:27;42;26;16
57049;PMS7003;42935;50.966;16.992;2022-11-20T11:38:14;37;31;21
57049;PMS7003;42935;50.966;16.992;2022-11-20T11:41:32;40;30;19
57049;PMS7003;42935;50.966;16.992;2022-11-20T11:44:46;38;30;20
57049;PMS7003;42935;50.966;16.992;2022-11-20T11:48:10;46;33;19
57049;PMS7003;42935;50.966;16.992;2022-11-20T11:51:21;42;31;20
57049;PMS7003;42935;50.966;16.992;2022-11-20T11:54:37;37;30;19
57049;PMS7003;42935;50.966;16.992;2022-11-20T12:04:44;41;32;21
57049;PMS7003;42935;50.966;16.992;2022-11-20T12:08:23;41;31;20
57049;PMS7003;42935;50.966;16.992;2022-11-20T12:11:31;36;29;18
57049;PMS7003;42935;50.966;16.992;2022-11-20T12:14:53;40;32;18
57049;PMS7003;42935;50.966;16.992;2022-11-20T12:18:11;39;29;18
57049;PMS7003;42935;50.966;16.992;2022-11-20T12:21:28;35;28;18
57049;PMS7003;42935;50.966;16.992;2022-11-20T12:24:52;34;27;17
57049;PMS7003;42935;50.966;16.992;2022-11-20T12:35:00;35;29;16
57049;PMS7003;42935;50.966;16.992;2022-11-20T12:41:43;34;24;16
57049;PMS7003;42935;50.966;16.992;2022-11-20T12:45:18;36;25;16
57049;PMS7003;42935;50.966;16.992;2022-11-20T12:58:52;35;26;17
57049;PMS7003;42935;50.966;16.992;2022-11-20T13:08:53;32;25;17
57049;PMS7003;42935;50.966;16.992;2022-11-20T13:18:56;36;30;18
57049;PMS7003;42935;50.966;16.992;2022-11-20T13:22:45;40;30;18
57049;PMS7003;42935;50.966;16.992;2022-11-20T13:26:06;39;30;18
57049;PMS7003;42935;50.966;16.992;2022-11-20T13:29:23;39;29;19
57049;PMS7003;42935;50.966;16.992;2022-11-20T13:32:47;37;27;18
57049;PMS7003;42935;50.966;16.992;2022-11-20T13:36:03;35;29;19
57049;PMS7003;42935;50.966;16.992;2022-11-20T13:43:01;37;29;18
57049;PMS7003;42935;50.966;16.992;2022-11-20T13:46:13;34;27;18
57049;PMS7003;42935;50.966;16.992;2022-11-20T13:52:52;38;28;18
57049;PMS7003;42935;50.966;16.992;2022-11-20T14:03:09;35;26;17
57049;PMS7003;42935;50.966;16.992;2022-11-20T14:09:35;45;33;20
57049;PMS7003;42935;50.966;16.992;2022-11-20T14:12:48;38;30;19
57049;PMS7003;42935;50.966;16.992;2022-11-20T14:15:58;32;29;18
57049;PMS7003;42935;50.966;16.992;2022-11-20T14:19:44;40;29;18
57049;PMS7003;42935;50.966;16.992;2022-11-20T14:22:56;40;32;18
57049;PMS7003;42935;50.966;16.992;2022-11-20T14:26:05;39;32;18
57049;PMS7003;42935;50.966;16.992;2022-11-20T14:29:19;36;27;16
57049;PMS7003;42935;50.966;16.992;2022-11-20T14:32:33;37;26;17
57049;PMS7003;42935;50.966;16.992;2022-11-20T14:35:46;34;27;18
57049;PMS7003;42935;50.966;16.992;2022-11-20T14:38:54;40;25;17
57049;PMS7003;42935;50.966;16.992;2022-11-20T14:46:00;37;27;17
57049;PMS7003;42935;50.966;16.992;2022-11-20T14:49:14;35;26;15
57049;PMS7003;42935;50.966;16.992;2022-11-20T14:52:27;38;30;19
57049;PMS7003;42935;50.966;16.992;2022-11-20T14:55:53;36;28;17
57049;PMS7003;42935;50.966;16.992;2022-11-20T14:59:21;44;31;20
57049;PMS7003;42935;50.966;16.992;2022-11-20T15:03:14;48;34;22
57049;PMS7003;42935;50.966;16.992;2022-11-20T15:06:28;45;34;22
57049;PMS7003;42935;50.966;16.992;2022-11-20T15:09:40;44;35;22
57049;PMS7003;42935;50.966;16.992;2022-11-20T15:12:59;45;34;20
57049;PMS7003;42935;50.966;16.992;2022-11-20T15:16:19;48;36;24
57049;PMS7003;42935;50.966;16.992;2022-11-20T15:20:03;54;40;25
57049;PMS7003;42935;50.966;16.992;2022-11-20T15:23:50;52;36;24
57049;PMS7003;42935;50.966;16.992;2022-11-20T15:27:41;55;42;24
57049;PMS7003;42935;50.966;16.992;2022-11-20T15:31:24;55;38;25
57049;PMS7003;42935;50.966;16.992;2022-11-20T15:34:39;44;33;23
57049;PMS7003;42935;50.966;16.992;2022-11-20T15:37:50;45;32;21
57049;PMS7003;42935;50.966;16.992;2022-11-20T15:41:06;46;34;23
57049;PMS7003;42935;50.966;16.992;2022-11-20T15:44:53;53;37;24
57049;PMS7003;42935;50.966;16.992;2022-11-20T15:48:16;57;43;24
57049;PMS7003;42935;50.966;16.992;2022-11-20T15:51:38;54;40;25
57049;PMS7003;42935;50.966;16.992;2022-11-20T15:55:35;61;44;27
57049;PMS7003;42935;50.966;16.992;2022-11-20T15:58:49;61;46;27
57049;PMS7003;42935;50.966;16.992;2022-11-20T16:02:39;71;51;31
57049;PMS7003;42935;50.966;16.992;2022-11-20T16:05:54;67;49;29
57049;PMS7003;42935;50.966;16.992;2022-11-20T16:09:35;54;41;27
57049;PMS7003;42935;50.966;16.992;2022-11-20T16:13:20;52;38;25
57049;PMS7003;42935;50.966;16.992;2022-11-20T16:17:15;57;41;25
57049;PMS7003;42935;50.966;16.992;2022-11-20T16:21:10;60;43;27
57049;PMS7003;42935;50.966;16.992;2022-11-20T16:25:05;62;44;27
57049;PMS7003;42935;50.966;16.992;2022-11-20T16:28:54;59;41;25
57049;PMS7003;42935;50.966;16.992;2022-11-20T16:32:32;0;0;0
57049;PMS7003;42935;50.966;16.992;2022-11-20T16:36:07;0;0;0
57049;PMS7003;42935;50.966;16.992;2022-11-20T16:39:48;0;0;0
57049;PMS7003;42935;50.966;16.992;2022-11-20T16:42:52;0;0;0
57049;PMS7003;42935;50.966;16.992;2022-11-20T16:46:29;0;0;0
57049;PMS7003;42935;50.966;16.992;2022-11-20T16:49:45;50;37;23
57049;PMS7003;42935;50.966;16.992;2022-11-20T16:53:30;56;39;24
57049;PMS7003;42935;50.966;16.992;2022-11-20T16:56:45;62;40;25
57049;PMS7003;42935;50.966;16.992;2022-11-20T17:00:29;59;42;25
57049;PMS7003;42935;50.966;16.992;2022-11-20T17:03:40;63;45;26
57049;PMS7003;42935;50.966;16.992;2022-11-20T17:07:36;59;44;26
57049;PMS7003;42935;50.966;16.992;2022-11-20T17:11:15;57;41;25
57049;PMS7003;42935;50.966;16.992;2022-11-20T17:14:25;4;4;2
57049;PMS7003;42935;50.966;16.992;2022-11-20T17:18:11;58;43;27
57049;PMS7003;42935;50.966;16.992;2022-11-20T17:21:26;58;44;29
57049;PMS7003;42935;50.966;16.992;2022-11-20T17:24:42;80;54;32
57049;PMS7003;42935;50.966;16.992;2022-11-20T17:28:27;79;56;33
57049;PMS7003;42935;50.966;16.992;2022-11-20T17:32:15;75;51;31
57049;PMS7003;42935;50.966;16.992;2022-11-20T17:35:35;83;57;34
57049;PMS7003;42935;50.966;16.992;2022-11-20T17:39:24;85;62;39
57049;PMS7003;42935;50.966;16.992;2022-11-20T17:43:00;11;6;5
57049;PMS7003;42935;50.966;16.992;2022-11-20T17:46:49;77;53;31
57049;PMS7003;42935;50.966;16.992;2022-11-20T17:50:39;81;58;36
57049;PMS7003;42935;50.966;16.992;2022-11-20T17:54:25;76;52;31
57049;PMS7003;42935;50.966;16.992;2022-11-20T17:58:11;85;57;35
57049;PMS7003;42935;50.966;16.992;2022-11-20T18:01:59;84;62;37
57049;PMS7003;42935;50.966;16.992;2022-11-20T18:05:45;87;64;38
57049;PMS7003;42935;50.966;16.992;2022-11-20T18:09:30;91;63;38
57049;PMS7003;42935;50.966;16.992;2022-11-20T18:13:05;0;0;0
57049;PMS7003;42935;50.966;16.992;2022-11-20T18:16:54;78;55;34
57049;PMS7003;42935;50.966;16.992;2022-11-20T18:20:06;84;59;37
57049;PMS7003;42935;50.966;16.992;2022-11-20T18:23:17;94;67;39
57049;PMS7003;42935;50.966;16.992;2022-11-20T18:26:28;85;61;37
57049;PMS7003;42935;50.966;16.992;2022-11-20T18:30:13;75;52;31
57049;PMS7003;42935;50.966;16.992;2022-11-20T18:33:25;74;54;34
57049;PMS7003;42935;50.966;16.992;2022-11-20T18:36:43;85;60;37
57049;PMS7003;42935;50.966;16.992;2022-11-20T18:39:58;80;56;35
57049;PMS7003;42935;50.966;16.992;2022-11-20T18:43:48;78;52;32
57049;PMS7003;42935;50.966;16.992;2022-11-20T18:47:44;75;52;32
57049;PMS7003;42935;50.966;16.992;2022-11-20T18:54:22;66;50;31
57049;PMS7003;42935;50.966;16.992;2022-11-20T18:57:40;75;52;32
57049;PMS7003;42935;50.966;16.992;2022-11-20T19:01:30;82;55;34
57049;PMS7003;42935;50.966;16.992;2022-11-20T19:05:11;84;60;36
57049;PMS7003;42935;50.966;16.992;2022-11-20T19:08:26;85;59;36
57049;PMS7003;42935;50.966;16.992;2022-11-20T19:11:41;82;58;36
57049;PMS7003;42935;50.966;16.992;2022-11-20T19:15:26;80;57;35
57049;PMS7003;42935;50.966;16.992;2022-11-20T19:19:16;80;57;35
57049;PMS7003;42935;50.966;16.992;2022-11-20T19:22:36;76;54;33
57049;PMS7003;42935;50.966;16.992;2022-11-20T19:26:17;85;58;35
57049;PMS7003;42935;50.966;16.992;2022-11-20T19:30:04;89;61;36
57049;PMS7003;42935;50.966;16.992;2022-11-20T19:33:53;84;59;36
57049;PMS7003;42935;50.966;16.992;2022-11-20T19:37:12;87;60;37
57049;PMS7003;42935;50.966;16.992;2022-11-20T19:40:27;83;56;34
57049;PMS7003;42935;50.966;16.992;2022-11-20T19:43:42;83;58;36
57049;PMS7003;42935;50.966;16.992;2022-11-20T19:47:06;89;61;37
57049;PMS7003;42935;50.966;16.992;2022-11-20T19:50:54;87;61;37
57049;PMS7003;42935;50.966;16.992;2022-11-20T19:54:35;83;58;35
57049;PMS7003;42935;50.966;16.992;2022-11-20T19:57:50;82;57;34
57049;PMS7003;42935;50.966;16.992;2022-11-20T20:01:28;0;0;0
57049;PMS7003;42935;50.966;16.992;2022-11-20T20:05:06;0;0;0
57049;PMS7003;42935;50.966;16.992;2022-11-20T20:08:11;0;0;0
57049;PMS7003;42935;50.966;16.992;2022-11-20T20:11:47;0;0;0
57049;PMS7003;42935;50.966;16.992;2022-11-20T20:15:22;0;0;0
57049;PMS7003;42935;50.966;16.992;2022-11-20T20:18:56;0;0;0
57049;PMS7003;42935;50.966;16.992;2022-11-20T20:22:10;32;21;12
57049;PMS7003;42935;50.966;16.992;2022-11-20T20:25:55;74;53;33
57049;PMS7003;42935;50.966;16.992;2022-11-20T20:29:38;74;56;35
57049;PMS7003;42935;50.966;16.992;2022-11-20T20:33:20;18;13;8
57049;PMS7003;42935;50.966;16.992;2022-11-20T20:37:06;81;58;37
57049;PMS7003;42935;50.966;16.992;2022-11-20T20:40:47;82;56;33
57049;PMS7003;42935;50.966;16.992;2022-11-20T20:44:36;83;59;35
57049;PMS7003;42935;50.966;16.992;2022-11-20T20:48:35;86;62;37
57049;PMS7003;42935;50.966;16.992;2022-11-20T20:51:46;87;60;35
57049;PMS7003;42935;50.966;16.992;2022-11-20T20:55:07;86;60;37
57049;PMS7003;42935;50.966;16.992;2022-11-20T20:59:02;89;64;38
57049;PMS7003;42935;50.966;16.992;2022-11-20T21:02:50;98;71;40
57049;PMS7003;42935;50.966;16.992;2022-11-20T21:06:37;94;67;39
57049;PMS7003;42935;50.966;16.992;2022-11-20T21:10:27;86;61;38
57049;PMS7003;42935;50.966;16.992;2022-11-20T21:14:13;86;62;37
57049;PMS7003;42935;50.966;16.992;2022-11-20T21:17:54;94;64;39
57049;PMS7003;42935;50.966;16.992;2022-11-20T21:21:04;89;63;39
57049;PMS7003;42935;50.966;16.992;2022-11-20T21:25:04;89;62;38
57049;PMS7003;42935;50.966;16.992;2022-11-20T21:28:46;77;55;33
57049;PMS7003;42935;50.966;16.992;2022-11-20T21:32:03;77;55;34
57049;PMS7003;42935;50.966;16.992;2022-11-20T21:35:21;79;57;34
57049;PMS7003;42935;50.966;16.992;2022-11-20T21:39:06;77;55;34
57049;PMS7003;42935;50.966;16.992;2022-11-20T21:42:23;76;52;32
57049;PMS7003;42935;50.966;16.992;2022-11-20T21:45:38;74;54;33
57049;PMS7003;42935;50.966;16.992;2022-11-20T21:49:26;82;58;35
57049;PMS7003;42935;50.966;16.992;2022-11-20T21:52:42;77;55;34
57049;PMS7003;42935;50.966;16.992;2022-11-20T21:55:58;83;57;35
57049;PMS7003;42935;50.966;16.992;2022-11-20T21:59:49;86;59;36
57049;PMS7003;42935;50.966;16.992;2022-11-20T22:03:04;76;54;34
57049;PMS7003;42935;50.966;16.992;2022-11-20T22:06:23;84;58;34
57049;PMS7003;42935;50.966;16.992;2022-11-20T22:09:42;78;56;34
57049;PMS7003;42935;50.966;16.992;2022-11-20T22:13:28;80;58;36
57049;PMS7003;42935;50.966;16.992;2022-11-20T22:17:29;81;58;35
57049;PMS7003;42935;50.966;16.992;2022-11-20T22:20:55;82;58;36
57049;PMS7003;42935;50.966;16.992;2022-11-20T22:24:44;81;55;34
57049;PMS7003;42935;50.966;16.992;2022-11-20T22:28:28;80;57;36
57049;PMS7003;42935;50.966;16.992;2022-11-20T22:32:13;80;58;35
57049;PMS7003;42935;50.966;16.992;2022-11-20T22:35:59;85;59;34
57049;PMS7003;42935;50.966;16.992;2022-11-20T22:39:15;83;57;35
57049;PMS7003;42935;50.966;16.992;2022-11-20T22:43:01;84;56;35
57049;PMS7003;42935;50.966;16.992;2022-11-20T22:46:16;86;59;36
57049;PMS7003;42935;50.966;16.992;2022-11-20T22:49:32;88;60;36
57049;PMS7003;42935;50.966;16.992;2022-11-20T22:53:20;84;59;35
57049;PMS7003;42935;50.966;16.992;2022-11-20T22:56:35;89;59;36
57049;PMS7003;42935;50.966;16.992;2022-11-20T22:59:52;85;59;36
57049;PMS7003;42935;50.966;16.992;2022-11-20T23:03:07;83;58;35
57049;PMS7003;42935;50.966;16.992;2022-11-20T23:06:25;88;59;36
57049;PMS7003;42935;50.966;16.992;2022-11-20T23:09:42;85;59;36
57049;PMS7003;42935;50.966;16.992;2022-11-20T23:12:56;78;57;35
57049;PMS7003;42935;50.966;16.992;2022-11-20T23:16:06;81;53;32
57049;PMS7003;42935;50.966;16.992;2022-11-20T23:19:18;78;52;32
57049;PMS7003;42935;50.966;16.992;2022-11-20T23:22:30;81;56;34
57049;PMS7003;42935;50.966;16.992;2022-11-20T23:25:46;86;60;36
57049;PMS7003;42935;50.966;16.992;2022-11-20T23:29:04;78;55;33
57049;PMS7003;42935;50.966;16.992;2022-11-20T23:32:16;76;51;31